Terminal Aerodrome Forecast
Issued by NWS

Home | Current Version | Previous Version | Text Only | Print | Product List | Glossary On
Versions: 1 2 3 4 5 6 7 8 9 10 11 12 13 14 15
457
FTUS46 KSEW 021720
TAFHQM
TAF
KHQM 021720Z 0218/0318 08010KT P6SM SCT120
     FM022200 23010KT P6SM SCT015 BKN120
     FM030600 21006KT P6SM BKN015 BKN080=

USA.gov is the U.S. government's official web portal to all federal, state and local government web resources and services.